Time;durP1;ratioP1;P1;durP2;ratioP2;P2;SDS_P1;SDS_P2;PMS_P1;PMS_P2;Temp;Humidity;BMP_temperature;BMP_pressure;BME280_temperature;BME280_humidity;BME280_pressure;Samples;Min_cycle;Max_cycle;Signal;HPM_P1;HPM_P2
2021/08/10 00:01:59;;;;;;;2.44;0.75;;;;;;;13.73;87.19;99525.41;2026102;77;21767;-74
2021/08/10 00:05:04;;;;;;;2.94;0.70;;;;;;;13.75;87.19;99523.63;2027005;79;20210;-74
2021/08/10 00:08:07;;;;;;;5.25;0.70;;;;;;;13.73;87.37;99520.19;2027397;79;20174;-74
2021/08/10 00:11:10;;;;;;;1.30;0.69;;;;;;;13.74;87.50;99515.81;2027855;79;20583;-75
2021/08/10 00:14:13;;;;;;;1.99;1.00;;;;;;;13.76;87.62;99520.13;2027716;79;20948;-74
2021/08/10 00:17:15;;;;;;;2.53;0.80;;;;;;;13.78;87.80;99513.13;2019667;78;26253;-75
2021/08/10 00:20:18;;;;;;;2.95;0.74;;;;;;;13.84;87.82;99506.97;2027136;79;20215;-75
2021/08/10 00:23:20;;;;;;;1.75;0.80;;;;;;;13.88;87.99;99512.13;2027060;79;20251;-75
2021/08/10 00:26:23;;;;;;;2.14;0.64;;;;;;;13.94;87.80;99505.06;2027340;79;20247;-75
2021/08/10 00:29:26;;;;;;;2.46;0.55;;;;;;;14.01;87.61;99506.72;2023485;80;20924;-76
2021/08/10 00:32:29;;;;;;;1.01;0.80;;;;;;;14.07;87.53;99506.59;2030217;77;21155;-74
2021/08/10 00:35:31;;;;;;;3.01;0.69;;;;;;;14.11;87.50;99508.25;2032491;79;20211;-74
2021/08/10 00:38:34;;;;;;;2.29;0.56;;;;;;;14.09;87.19;99505.66;2032251;79;20853;-74
2021/08/10 00:41:37;;;;;;;2.58;0.79;;;;;;;14.01;87.29;99502.34;2032526;79;20684;-74
2021/08/10 00:44:40;;;;;;;2.69;0.84;;;;;;;14.04;87.37;99496.19;2032601;79;20513;-75
2021/08/10 00:47:42;;;;;;;5.47;0.80;;;;;;;14.01;87.11;99491.91;2026373;77;25599;-74
2021/08/10 00:50:45;;;;;;;1.19;0.52;;;;;;;14.00;86.97;99495.38;2027104;80;20246;-75
2021/08/10 00:53:48;;;;;;;3.19;0.79;;;;;;;13.99;86.67;99492.78;2027088;79;20178;-74
2021/08/10 00:56:55;;;;;;;4.00;1.52;;;;;;;13.94;86.88;99489.41;2027508;79;20275;-75
2021/08/10 00:59:59;;;;;;;5.51;0.70;;;;;;;13.97;86.93;99497.19;2027096;80;20162;-75
2021/08/10 01:03:03;;;;;;;1.04;0.54;;;;;;;13.94;87.17;99490.25;2026976;77;20210;-74
2021/08/10 01:06:11;;;;;;;0.90;0.59;;;;;;;13.94;87.15;99495.47;2027297;80;20588;-74
2021/08/10 01:09:21;;;;;;;2.48;0.60;;;;;;;13.91;87.49;99487.69;2027212;79;20228;-74
2021/08/10 01:12:32;;;;;;;1.73;0.51;;;;;;;13.93;87.63;99485.94;2026795;79;20559;-75
2021/08/10 01:15:46;;;;;;;2.30;0.80;;;;;;;13.97;87.63;99482.38;2026822;79;20205;-75
2021/08/10 01:19:15;;;;;;;2.50;0.68;;;;;;;13.90;87.52;99483.38;2032597;77;20445;-75
2021/08/10 01:22:20;;;;;;;0.68;0.50;;;;;;;13.86;87.95;99485.19;2032246;79;20162;-74
2021/08/10 01:25:37;;;;;;;1.46;0.70;;;;;;;13.89;88.18;99495.56;2032675;79;20173;-74
2021/08/10 01:28:58;;;;;;;4.20;0.70;;;;;;;13.93;88.38;99488.53;2032514;79;20198;-74
2021/08/10 01:32:02;;;;;;;3.88;0.63;;;;;;;13.94;88.50;99482.44;2030203;77;30205;-74
2021/08/10 01:35:06;;;;;;;4.01;0.60;;;;;;;13.90;88.31;99484.22;2027419;80;20179;-75
2021/08/10 01:38:09;;;;;;;2.92;0.80;;;;;;;13.82;88.25;99483.50;2030054;79;20215;-74
2021/08/10 01:41:13;;;;;;;1.74;0.70;;;;;;;13.83;88.34;99487.84;2027149;80;20228;-75
2021/08/10 01:44:16;;;;;;;2.61;0.94;;;;;;;13.86;88.19;99481.72;2026922;79;20178;-74
2021/08/10 01:47:22;;;;;;;1.56;0.74;;;;;;;13.89;88.05;99485.13;2026283;77;25259;-75
2021/08/10 01:50:24;;;;;;;3.75;0.60;;;;;;;13.88;88.33;99483.41;2028176;79;20223;-75
2021/08/10 01:53:29;;;;;;;3.83;0.81;;;;;;;13.91;88.45;99480.72;2028222;79;20170;-75
2021/08/10 01:56:32;;;;;;;0.76;0.59;;;;;;;13.98;88.13;99491.06;2028205;79;20566;-73
2021/08/10 01:59:35;;;;;;;1.98;0.70;;;;;;;14.01;88.10;99488.44;2027786;79;20612;-75
2021/08/10 02:02:40;;;;;;;1.92;0.80;;;;;;;14.00;88.25;99502.34;2032592;78;21064;-75
2021/08/10 02:05:43;;;;;;;1.01;0.70;;;;;;;13.94;88.36;99492.88;2034212;79;20218;-74
2021/08/10 02:08:48;;;;;;;1.42;0.90;;;;;;;13.92;88.38;99492.03;2034755;79;20154;-74
2021/08/10 02:11:53;;;;;;;3.99;0.81;;;;;;;13.89;88.83;99486.88;2038383;79;20173;-75
2021/08/10 02:14:58;;;;;;;1.45;0.79;;;;;;;13.91;89.10;99485.09;2034452;79;20771;-75
2021/08/10 02:18:00;;;;;;;2.17;0.70;;;;;;;13.95;88.94;99480.69;2033482;77;21211;-74
2021/08/10 02:21:06;;;;;;;4.79;0.70;;;;;;;13.95;88.83;99478.94;2034726;79;20242;-74
2021/08/10 02:24:15;;;;;;;2.61;0.69;;;;;;;13.95;88.72;99486.75;2034209;79;20202;-74
2021/08/10 02:27:27;;;;;;;1.52;0.70;;;;;;;13.96;88.59;99485.88;2034068;79;20170;-75
2021/08/10 02:30:34;;;;;;;5.65;1.16;;;;;;;13.98;88.50;99486.69;2032143;77;20308;-75
2021/08/10 02:33:38;;;;;;;2.05;0.60;;;;;;;14.01;88.34;99480.59;2029443;79;20553;-75
2021/08/10 02:36:42;;;;;;;3.04;0.80;;;;;;;13.98;88.58;99486.69;2028607;79;20183;-74
2021/08/10 02:39:48;;;;;;;2.35;0.70;;;;;;;14.01;88.58;99493.66;2032604;79;20227;-75
2021/08/10 02:42:54;;;;;;;2.01;0.60;;;;;;;14.02;88.80;99495.38;2028842;79;20186;-75
2021/08/10 02:45:57;;;;;;;2.69;0.70;;;;;;;14.03;88.69;99489.25;2027855;77;23618;-75
2021/08/10 02:49:00;;;;;;;2.61;0.71;;;;;;;14.06;88.47;99495.28;2025204;79;20186;-75
2021/08/10 02:52:03;;;;;;;1.02;0.60;;;;;;;14.05;88.35;99487.47;2028006;79;20725;-74
2021/08/10 02:55:07;;;;;;;2.70;0.61;;;;;;;13.97;88.25;99490.19;2028733;79;20214;-74
2021/08/10 02:58:16;;;;;;;2.21;0.60;;;;;;;13.92;88.27;99489.44;2028856;79;20203;-75
2021/08/10 03:01:25;;;;;;;3.56;0.67;;;;;;;13.89;88.29;99497.31;2030333;77;21262;-74
2021/08/10 03:04:30;;;;;;;2.09;0.69;;;;;;;13.83;88.43;99500.03;2028430;79;20320;-75
2021/08/10 03:07:33;;;;;;;1.13;0.60;;;;;;;13.73;88.47;99509.75;2028938;79;20204;-74
2021/08/10 03:10:38;;;;;;;2.10;0.70;;;;;;;13.69;88.80;99507.22;2027774;79;20323;-75
2021/08/10 03:13:44;;;;;;;1.98;0.70;;;;;;;13.68;89.01;99506.34;2027249;79;20167;-74
2021/08/10 03:16:48;;;;;;;3.17;0.79;;;;;;;13.67;89.30;99512.44;2023489;78;25067;-75
2021/08/10 03:19:53;;;;;;;1.25;0.80;;;;;;;13.67;89.33;99516.81;2022196;80;20186;-75
2021/08/10 03:22:57;;;;;;;1.52;0.59;;;;;;;13.64;89.55;99519.44;2022386;80;20256;-76
2021/08/10 03:26:01;;;;;;;3.47;0.56;;;;;;;13.62;89.99;99516.84;2022988;80;20167;-75
2021/08/10 03:29:04;;;;;;;6.81;1.00;;;;;;;13.69;90.17;99515.91;2021853;80;20212;-74
2021/08/10 03:32:07;;;;;;;3.67;0.70;;;;;;;13.76;89.94;99506.22;2019991;77;25327;-75
2021/08/10 03:35:10;;;;;;;1.70;0.82;;;;;;;13.82;89.74;99508.72;2022425;80;20195;-74
2021/08/10 03:38:14;;;;;;;1.13;0.70;;;;;;;13.85;89.59;99520.00;2021506;80;20178;-75
2021/08/10 03:41:17;;;;;;;1.36;0.60;;;;;;;13.84;89.67;99518.28;2021577;80;20707;-75
2021/08/10 03:44:20;;;;;;;4.13;0.86;;;;;;;13.86;89.49;99520.84;2022354;80;20259;-75
2021/08/10 03:47:23;;;;;;;2.70;0.60;;;;;;;13.81;89.41;99523.50;2021479;77;22704;-75
2021/08/10 03:50:26;;;;;;;5.68;0.80;;;;;;;13.77;89.53;99523.59;2018213;80;20155;-76
2021/08/10 03:53:31;;;;;;;1.69;0.60;;;;;;;13.74;89.73;99524.50;2021969;80;20624;-75
2021/08/10 03:56:37;;;;;;;2.14;0.98;;;;;;;13.72;89.85;99531.50;2022319;80;20463;-75
2021/08/10 03:59:41;;;;;;;4.68;1.25;;;;;;;13.70;90.12;99535.88;2021729;80;20241;-74
2021/08/10 04:02:44;;;;;;;2.81;0.73;;;;;;;13.72;90.36;99544.53;2026533;77;23424;-75
2021/08/10 04:05:49;;;;;;;4.14;0.55;;;;;;;13.77;90.40;99534.03;2026453;79;20206;-75
2021/08/10 04:08:52;;;;;;;1.08;0.50;;;;;;;13.79;90.62;99540.94;2023234;79;20190;-74
2021/08/10 04:11:55;;;;;;;1.10;0.60;;;;;;;13.84;90.65;99538.28;2026232;79;20174;-75
2021/08/10 04:14:58;;;;;;;1.46;0.70;;;;;;;13.89;90.57;99531.25;2027207;79;20239;-76
2021/08/10 04:18:02;;;;;;;1.35;0.60;;;;;;;13.91;90.56;99527.72;2021558;77;25480;-75
2021/08/10 04:21:04;;;;;;;1.56;0.70;;;;;;;13.94;90.35;99521.59;2021585;80;20256;-76
2021/08/10 04:24:07;;;;;;;2.59;0.60;;;;;;;13.95;90.29;99530.28;2022719;80;20204;-75
2021/08/10 04:27:11;;;;;;;4.99;1.04;;;;;;;13.90;90.31;99518.16;2022297;80;20633;-76
2021/08/10 04:30:14;;;;;;;5.86;0.71;;;;;;;13.94;90.08;99523.34;2021319;80;20263;-75
2021/08/10 04:33:17;;;;;;;3.30;0.70;;;;;;;13.96;89.89;99509.38;2022098;77;20509;-74
2021/08/10 04:36:19;;;;;;;4.97;0.81;;;;;;;13.91;89.65;99530.34;2022184;80;20294;-75
2021/08/10 04:39:26;;;;;;;1.61;0.70;;;;;;;13.86;89.81;99521.72;2022344;80;20569;-75
2021/08/10 04:42:28;;;;;;;2.46;0.63;;;;;;;13.90;89.81;99522.53;2021812;80;20657;-75
2021/08/10 04:45:31;;;;;;;3.55;0.88;;;;;;;13.91;90.07;99513.81;2021457;77;26375;-78
2021/08/10 04:48:33;;;;;;;2.96;1.00;;;;;;;13.94;90.10;99518.13;2027649;80;20182;-74
2021/08/10 04:51:36;;;;;;;0.85;0.60;;;;;;;13.96;90.18;99514.59;2027229;80;20182;-76
2021/08/10 04:54:39;;;;;;;8.70;0.70;;;;;;;13.99;89.88;99513.66;2027748;80;20179;-75
2021/08/10 04:57:41;;;;;;;3.04;0.66;;;;;;;13.98;89.92;99514.56;2026917;80;20217;-75
2021/08/10 05:00:46;;;;;;;1.34;0.70;;;;;;;13.95;90.02;99518.09;2025035;77;22694;-75
2021/08/10 05:03:49;;;;;;;1.19;0.64;;;;;;;13.99;90.09;99538.03;2022301;80;20293;-75
2021/08/10 05:06:53;;;;;;;2.30;0.71;;;;;;;14.00;90.18;99544.97;2021186;80;20167;-75
2021/08/10 05:09:56;;;;;;;4.01;0.80;;;;;;;14.04;90.20;99545.81;2021912;80;21085;-74
2021/08/10 05:12:59;;;;;;;1.48;0.80;;;;;;;14.11;89.95;99545.69;2022330;80;20197;-74
2021/08/10 05:16:01;;;;;;;2.97;0.84;;;;;;;14.17;89.85;99539.47;2021788;77;25424;-75
2021/08/10 05:19:04;;;;;;;2.61;0.70;;;;;;;14.17;90.11;99535.13;2021565;80;20185;-75
2021/08/10 05:22:06;;;;;;;4.22;0.90;;;;;;;14.18;90.17;99525.53;2021394;80;20176;-74
2021/08/10 05:25:10;;;;;;;2.95;0.79;;;;;;;14.21;90.27;99520.28;2022847;80;20791;-74
2021/08/10 05:28:13;;;;;;;4.39;0.81;;;;;;;14.26;90.28;99505.38;2022475;80;20266;-73
2021/08/10 05:31:15;;;;;;;3.00;0.79;;;;;;;14.31;90.25;99500.06;2024174;77;21924;-73
2021/08/10 05:34:18;;;;;;;2.90;0.66;;;;;;;14.36;89.58;99483.44;2028165;79;20285;-74
2021/08/10 05:37:21;;;;;;;3.01;0.69;;;;;;;14.40;89.71;99473.81;2028168;79;20712;-74
2021/08/10 05:40:23;;;;;;;1.73;0.79;;;;;;;14.41;89.65;99476.38;2028425;79;20195;-74
2021/08/10 05:43:26;;;;;;;4.85;0.90;;;;;;;14.35;89.68;99457.31;2027715;79;20729;-75
2021/08/10 05:46:29;;;;;;;1.81;0.79;;;;;;;14.30;89.93;99465.25;2026543;77;20186;-75
2021/08/10 05:49:31;;;;;;;4.13;0.74;;;;;;;14.28;90.10;99466.19;2027912;79;20219;-76
2021/08/10 05:52:34;;;;;;;3.08;0.82;;;;;;;14.30;90.21;99462.66;2027515;79;20182;-75
2021/08/10 05:55:37;;;;;;;1.84;0.86;;;;;;;14.35;90.42;99465.16;2027673;79;20210;-75
2021/08/10 05:58:39;;;;;;;1.76;0.86;;;;;;;14.39;90.77;99462.50;2027542;79;20293;-76
2021/08/10 06:01:42;;;;;;;3.13;0.75;;;;;;;14.48;90.98;99461.47;2025054;77;54379;-76
2021/08/10 06:04:45;;;;;;;3.10;0.94;;;;;;;14.57;90.89;99468.28;2022746;80;20187;-76
2021/08/10 06:07:48;;;;;;;1.99;0.80;;;;;;;14.66;90.76;99473.31;2021878;80;20251;-76
2021/08/10 06:10:50;;;;;;;2.69;1.20;;;;;;;14.76;90.51;99490.56;2022681;80;20652;-76
2021/08/10 06:13:53;;;;;;;5.44;0.90;;;;;;;14.87;90.48;99512.09;2022483;80;20208;-75
2021/08/10 06:16:55;;;;;;;2.56;0.80;;;;;;;14.99;90.08;99521.47;2025286;77;21576;-76
2021/08/10 06:19:58;;;;;;;2.29;0.80;;;;;;;15.11;89.60;99535.16;2028164;79;20247;-75
2021/08/10 06:23:01;;;;;;;3.14;0.74;;;;;;;15.22;89.17;99534.91;2027946;79;20158;-75
2021/08/10 06:26:04;;;;;;;2.69;0.84;;;;;;;15.35;89.04;99544.25;2031369;79;20167;-75
2021/08/10 06:29:06;;;;;;;3.45;0.90;;;;;;;15.48;88.49;99533.53;2028107;79;20194;-75
2021/08/10 06:32:09;;;;;;;6.20;0.90;;;;;;;15.58;88.20;99535.03;2023143;77;21418;-75
2021/08/10 06:35:12;;;;;;;2.47;1.00;;;;;;;15.66;87.84;99539.25;2022843;80;20228;-75
2021/08/10 06:38:14;;;;;;;2.30;0.93;;;;;;;15.76;87.56;99536.41;2023024;80;20702;-75
2021/08/10 06:41:17;;;;;;;5.76;0.98;;;;;;;15.82;87.54;99531.03;2022890;80;20214;-75
2021/08/10 06:44:20;;;;;;;2.78;0.95;;;;;;;15.81;87.37;99530.19;2022949;80;20187;-75
2021/08/10 06:47:22;;;;;;;3.81;1.00;;;;;;;15.83;87.25;99533.63;2021365;80;50605;-75
2021/08/10 06:50:25;;;;;;;3.79;1.10;;;;;;;15.87;86.97;99534.41;2023193;80;20213;-75
2021/08/10 06:53:27;;;;;;;5.45;1.09;;;;;;;15.92;87.09;99530.75;2023346;80;20239;-76
2021/08/10 06:56:30;;;;;;;4.01;1.20;;;;;;;16.00;87.03;99538.44;2023401;80;20228;-76
2021/08/10 06:59:34;;;;;;;2.78;1.06;;;;;;;16.01;87.28;99545.41;2022987;80;20363;-75
2021/08/10 07:02:36;;;;;;;2.63;1.05;;;;;;;16.04;87.18;99545.34;2026700;77;20312;-76
2021/08/10 07:05:40;;;;;;;4.89;1.61;;;;;;;16.10;86.91;99542.56;2027889;79;20304;-75
2021/08/10 07:08:42;;;;;;;3.53;1.27;;;;;;;16.19;87.13;99534.47;2027580;79;20310;-75
2021/08/10 07:11:45;;;;;;;5.41;1.69;;;;;;;16.27;86.92;99532.53;2026287;79;20178;-76
2021/08/10 07:14:48;;;;;;;3.63;1.40;;;;;;;16.34;86.66;99538.47;2026853;79;20698;-76
2021/08/10 07:17:51;;;;;;;7.89;1.55;;;;;;;16.43;86.12;99540.84;2020460;77;54210;-76
2021/08/10 07:20:53;;;;;;;4.75;1.27;;;;;;;16.55;85.22;99539.69;2021167;80;20167;-77
2021/08/10 07:23:56;;;;;;;7.01;1.80;;;;;;;16.67;84.63;99539.38;2024174;80;20199;-71
2021/08/10 07:26:59;;;;;;;4.78;1.63;;;;;;;16.82;84.29;99532.84;2020935;80;20248;-75
2021/08/10 07:30:02;;;;;;;4.25;1.30;;;;;;;16.90;84.17;99531.75;2020612;80;20175;-72
2021/08/10 07:33:05;;;;;;;3.99;1.79;;;;;;;17.03;84.02;99524.38;2025112;77;35241;-74
2021/08/10 07:36:07;;;;;;;6.79;1.31;;;;;;;17.10;82.38;99523.31;2025317;79;20865;-75
2021/08/10 07:39:11;;;;;;;3.38;1.19;;;;;;;17.22;81.87;99529.97;2025861;79;20246;-73
2021/08/10 07:42:13;;;;;;;4.68;1.10;;;;;;;17.40;81.71;99534.66;2025437;79;20184;-74
2021/08/10 07:45:16;;;;;;;2.34;0.90;;;;;;;17.45;79.57;99543.28;2024492;79;20186;-75
2021/08/10 07:48:20;;;;;;;4.34;1.15;;;;;;;17.58;77.94;99543.75;2027171;77;59484;-82
2021/08/10 07:51:23;;;;;;;4.04;1.25;;;;;;;18.02;79.02;99541.56;2034895;80;20208;-85
2021/08/10 07:54:25;;;;;;;4.81;1.05;;;;;;;18.37;78.51;99546.50;2034094;80;20205;-83
2021/08/10 07:57:28;;;;;;;3.60;1.15;;;;;;;18.52;76.50;99534.63;2032725;80;20191;-85
2021/08/10 08:00:30;;;;;;;3.81;1.14;;;;;;;18.52;74.84;99545.13;2035659;77;25190;-84
2021/08/10 08:03:33;;;;;;;1.58;1.23;;;;;;;18.51;73.62;99543.41;2039566;79;20232;-82
2021/08/10 08:06:37;;;;;;;3.53;1.05;;;;;;;18.52;74.29;99544.28;2039515;79;20272;-84
2021/08/10 08:09:40;;;;;;;6.60;1.15;;;;;;;18.58;74.70;99546.69;2037922;79;20220;-84
2021/08/10 08:12:42;;;;;;;3.70;1.00;;;;;;;18.64;75.45;99539.47;2039180;79;20182;-81
2021/08/10 08:15:45;;;;;;;5.79;1.16;;;;;;;18.65;74.76;99546.44;2033738;79;20204;-82
2021/08/10 08:18:48;;;;;;;4.09;1.19;;;;;;;18.71;75.06;99551.50;2038786;79;20178;-84
2021/08/10 08:21:50;;;;;;;4.97;1.14;;;;;;;18.72;74.06;99552.38;2037522;79;20167;-82
2021/08/10 08:24:53;;;;;;;4.93;1.06;;;;;;;18.78;73.54;99552.13;2038470;79;20204;-84
2021/08/10 08:27:56;;;;;;;3.30;0.91;;;;;;;18.80;73.03;99549.44;2037652;79;20213;-83
2021/08/10 08:30:59;;;;;;;1.71;1.15;;;;;;;18.83;73.24;99554.59;2037656;79;20175;-85
2021/08/10 08:34:02;;;;;;;2.78;1.00;;;;;;;18.81;72.59;99548.53;2038824;79;20182;-85
2021/08/10 08:37:04;;;;;;;2.61;1.00;;;;;;;18.91;73.92;99545.53;2042197;79;20172;-84
2021/08/10 08:40:07;;;;;;;5.03;1.02;;;;;;;19.07;74.42;99540.56;2041037;80;20461;-84
2021/08/10 08:43:11;;;;;;;4.84;0.93;;;;;;;19.22;73.87;99532.13;2039783;80;20198;-85
2021/08/10 08:46:15;;;;;;;1.91;0.80;;;;;;;19.28;72.40;99536.28;2041639;80;20155;-87
2021/08/10 08:49:21;;;;;;;1.83;0.90;;;;;;;19.33;71.07;99537.81;2041314;80;20277;-84
2021/08/10 08:52:27;;;;;;;4.29;0.98;;;;;;;19.28;69.12;99531.88;2038792;80;20182;-85
2021/08/10 08:55:30;;;;;;;4.69;0.81;;;;;;;19.28;69.04;99546.81;2040506;79;20200;-84
2021/08/10 08:58:33;;;;;;;2.46;0.88;;;;;;;19.35;69.52;99553.56;2040090;79;20170;-85
2021/08/10 09:01:39;;;;;;;3.14;0.95;;;;;;;19.57;69.08;99548.38;2038829;77;21325;-84
2021/08/10 09:04:41;;;;;;;4.32;1.16;;;;;;;20.01;70.18;99554.53;2040884;80;20239;-85
2021/08/10 09:07:44;;;;;;;5.64;1.00;;;;;;;20.44;68.71;99553.63;2044733;80;20175;-85
2021/08/10 09:10:53;;;;;;;2.97;0.80;;;;;;;20.69;68.54;99549.97;2038310;80;20199;-86
2021/08/10 09:13:57;;;;;;;;;;;;;;;20.88;68.10;99556.16;2038619;80;20254;-85
2021/08/10 09:17:05;;;;;;;5.07;0.71;;;;;;;21.13;67.17;99558.56;2040947;80;20063;-86
2021/08/10 09:20:08;;;;;;;;;;;;;;;21.47;66.54;99562.34;2036019;80;20222;-85
2021/08/10 09:23:12;;;;;;;1.29;0.80;;;;;;;21.76;64.96;99555.72;2039688;80;20108;-84
2021/08/10 09:26:19;;;;;;;3.36;1.00;;;;;;;21.89;63.86;99549.75;2036817;80;20175;-86
2021/08/10 09:29:21;;;;;;;3.15;0.90;;;;;;;22.04;63.38;99556.09;2043816;80;20127;-87
2021/08/10 09:46:37;;;;;;;2.31;0.90;;;;;;;22.48;59.10;99553.94;2062986;69;20265;-84
2021/08/10 09:49:45;;;;;;;2.65;0.77;;;;;;;22.29;60.88;99546.06;2038954;80;20200;-82
2021/08/10 09:52:48;;;;;;;3.46;0.87;;;;;;;22.29;62.29;99559.28;2038154;80;20166;-84
2021/08/10 09:55:55;;;;;;;4.57;0.94;;;;;;;22.43;61.13;99560.38;2036541;80;20185;-85
2021/08/10 09:59:00;;;;;;;3.13;0.80;;;;;;;22.39;59.62;99557.03;2037736;80;20183;-85
2021/08/10 10:02:03;;;;;;;1.61;0.79;;;;;;;22.31;59.57;99559.22;2032789;77;214165;-85
2021/08/10 10:05:07;;;;;;;2.17;0.81;;;;;;;22.20;59.90;99554.44;2038482;69;20234;-85
2021/08/10 10:08:18;;;;;;;3.50;0.79;;;;;;;22.15;60.86;99550.31;2036423;80;20245;-84
2021/08/10 10:11:21;;;;;;;1.95;0.70;;;;;;;22.07;60.46;99563.03;2039746;80;20143;-83
2021/08/10 10:14:26;;;;;;;1.63;0.70;;;;;;;21.96;61.00;99563.53;2117854;69;20243;-86
2021/08/10 10:17:33;;;;;;;3.66;0.79;;;;;;;21.95;63.33;99559.19;2035592;78;136857;-85
2021/08/10 10:20:40;;;;;;;2.72;0.80;;;;;;;21.92;64.04;99559.34;2038248;80;20277;-86
2021/08/10 10:23:44;;;;;;;3.03;0.80;;;;;;;22.06;63.76;99554.25;2041814;80;20139;-84
2021/08/10 10:26:52;;;;;;;4.22;0.90;;;;;;;22.26;63.69;99550.63;2036345;80;20187;-83
2021/08/10 10:29:57;;;;;;;2.35;0.70;;;;;;;22.25;61.72;99556.84;2035979;80;20155;-84
2021/08/10 10:33:01;;;;;;;1.83;0.71;;;;;;;22.30;62.33;99561.00;2036835;77;164022;-85
2021/08/10 10:36:05;;;;;;;2.26;0.80;;;;;;;22.40;62.92;99553.44;2034531;80;20205;-84
2021/08/10 10:39:09;;;;;;;4.18;0.98;;;;;;;22.45;60.96;99554.09;2038370;80;20220;-84
2021/08/10 10:42:14;;;;;;;2.16;0.90;;;;;;;22.50;61.60;99552.06;2040228;80;20374;-85
2021/08/10 10:48:44;;;;;;;3.46;0.90;;;;;;;22.72;61.42;99543.00;2040313;69;20262;-85
2021/08/10 10:51:47;;;;;;;3.66;0.80;;;;;;;22.77;58.69;99547.13;2035579;80;20163;-84
2021/08/10 10:54:55;;;;;;;2.00;0.80;;;;;;;22.75;57.76;99546.34;2040672;80;20163;-84
2021/08/10 10:57:57;;;;;;;1.63;0.76;;;;;;;22.79;59.95;99536.44;2039147;80;20159;-84
2021/08/10 11:01:12;;;;;;;3.13;0.80;;;;;;;22.82;57.56;99536.34;2036234;80;20167;-85
2021/08/10 11:04:16;;;;;;;2.61;1.05;;;;;;;22.79;57.22;99528.50;2038298;80;20164;-84
2021/08/10 11:10:48;;;;;;;1.99;0.79;;;;;;;22.97;57.72;99535.53;2044559;69;20284;-84
2021/08/10 11:13:51;;;;;;;2.97;0.80;;;;;;;23.13;58.32;99530.25;2040142;80;20178;-83
2021/08/10 11:31:09;;;;;;;2.13;0.80;;;;;;;24.15;56.58;99523.72;2140707;69;141147;-84
2021/08/10 11:37:34;;;;;;;3.31;0.96;;;;;;;24.05;54.66;99532.19;2133308;69;20232;-86
2021/08/10 11:44:20;;;;;;;3.14;0.88;;;;;;;24.17;55.98;99520.03;2139275;69;20155;-84
2021/08/10 11:47:24;;;;;;;1.85;0.90;;;;;;;24.34;54.86;99522.59;2040088;77;89762;-83
2021/08/10 11:50:29;;;;;;;3.38;1.00;;;;;;;24.43;54.95;99529.19;2035426;80;20127;-83
2021/08/10 11:53:32;;;;;;;6.35;0.80;;;;;;;24.55;53.93;99531.09;2032800;80;20267;-78
2021/08/10 11:56:41;;;;;;;3.28;1.00;;;;;;;24.80;53.62;99526.97;2032912;80;20157;-84
2021/08/10 11:59:44;;;;;;;3.56;0.80;;;;;;;25.10;51.32;99527.75;2034620;80;20236;-84
2021/08/10 12:02:47;;;;;;;2.01;0.81;;;;;;;25.56;52.41;99517.75;2039320;78;90870;-83
2021/08/10 12:05:51;;;;;;;2.90;1.05;;;;;;;25.70;51.30;99522.22;2034159;80;20228;-84
2021/08/10 12:08:55;;;;;;;1.31;0.64;;;;;;;25.69;51.07;99511.69;2039387;80;20167;-86
2021/08/10 12:11:58;;;;;;;2.19;0.82;;;;;;;25.72;49.78;99506.16;2037827;80;20167;-81
2021/08/10 12:15:01;;;;;;;7.14;0.98;;;;;;;25.66;49.26;99506.50;2040699;80;20183;-82
2021/08/10 12:18:04;;;;;;;1.94;0.80;;;;;;;25.73;48.67;99500.75;2028126;77;55806;-80
2021/08/10 12:56:10;;;;;;;1.61;0.80;;;;;;;26.25;46.72;99476.00;2058274;70;20182;-76
2021/08/10 12:59:13;;;;;;;1.60;0.90;;;;;;;25.48;46.96;99476.63;1997066;81;20170;-76
2021/08/10 13:02:35;;;;;;;1.58;0.94;;;;;;;25.22;49.40;99473.84;1995006;78;23735;-78
2021/08/10 13:05:38;;;;;;;2.53;0.90;;;;;;;25.42;50.31;99471.72;1995179;81;20208;-76
2021/08/10 13:08:53;;;;;;;2.11;0.81;;;;;;;25.94;50.19;99474.53;1996492;81;20373;-76
2021/08/10 13:12:07;;;;;;;1.09;0.70;;;;;;;26.30;48.21;99468.56;1995932;81;20220;-76
2021/08/10 13:15:10;;;;;;;2.42;0.73;;;;;;;26.71;48.21;99464.88;1996533;81;20190;-76
2021/08/10 13:18:24;;;;;;;1.99;0.80;;;;;;;26.90;46.79;99462.63;2000795;78;47775;-75
2021/08/10 13:21:43;;;;;;;3.30;1.00;;;;;;;26.99;46.13;99464.66;2000954;81;20223;-77
2021/08/10 13:25:09;;;;;;;1.10;0.81;;;;;;;27.07;45.46;99467.66;2001246;81;20189;-76
2021/08/10 13:28:14;;;;;;;3.79;0.91;;;;;;;27.07;43.92;99466.81;2000981;81;20243;-76
2021/08/10 13:31:19;;;;;;;1.61;0.93;;;;;;;27.13;45.41;99462.88;1994426;78;23555;-75
2021/08/10 13:34:44;;;;;;;1.25;0.75;;;;;;;27.40;45.41;99458.19;1995779;81;20643;-76
2021/08/10 13:37:47;;;;;;;1.95;0.90;;;;;;;27.39;43.75;99453.81;1995860;81;20198;-76
2021/08/10 13:40:52;;;;;;;1.54;0.90;;;;;;;27.14;43.83;99452.09;1995391;81;20175;-76
2021/08/10 13:43:55;;;;;;;2.86;0.90;;;;;;;26.67;44.21;99450.06;1996775;81;20178;-76
2021/08/10 13:46:57;;;;;;;3.72;1.11;;;;;;;26.31;45.33;99459.59;1998794;78;22277;-75
2021/08/10 13:50:00;;;;;;;2.83;1.10;;;;;;;26.01;46.26;99451.03;1997440;81;20207;-77
2021/08/10 13:53:05;;;;;;;1.29;0.79;;;;;;;25.96;48.00;99453.16;2001605;81;20200;-75
2021/08/10 13:56:07;;;;;;;2.79;1.05;;;;;;;26.16;47.16;99442.00;2004411;80;20232;-76
2021/08/10 13:59:10;;;;;;;2.30;1.01;;;;;;;26.52;47.37;99438.66;2005411;80;20342;-76
2021/08/10 14:02:13;;;;;;;1.92;0.94;;;;;;;26.43;44.86;99440.19;2000386;78;22388;-76
2021/08/10 14:05:16;;;;;;;1.70;1.00;;;;;;;26.65;45.73;99434.19;2000746;81;20695;-76
2021/08/10 14:08:20;;;;;;;3.63;0.95;;;;;;;26.70;46.05;99440.06;2000132;81;20250;-76
2021/08/10 14:11:23;;;;;;;2.54;1.10;;;;;;;26.39;45.21;99435.13;2000302;81;20209;-75
2021/08/10 14:14:25;;;;;;;2.92;1.00;;;;;;;26.31;46.76;99430.31;2001466;81;20193;-76
2021/08/10 14:17:28;;;;;;;1.98;0.90;;;;;;;26.10;46.35;99431.78;2005122;77;20214;-76
2021/08/10 14:20:31;;;;;;;3.16;0.90;;;;;;;25.70;45.84;99433.59;2006332;80;20203;-76
2021/08/10 14:23:34;;;;;;;1.38;0.80;;;;;;;25.42;46.83;99432.69;2006136;80;20663;-76
2021/08/10 14:26:37;;;;;;;3.99;1.10;;;;;;;25.28;48.86;99433.59;2006115;80;20213;-76
2021/08/10 14:29:40;;;;;;;3.30;1.10;;;;;;;25.22;48.46;99430.47;2007800;80;20250;-77
2021/08/10 14:32:42;;;;;;;1.67;0.90;;;;;;;25.18;49.73;99429.81;2003124;78;22257;-77
2021/08/10 14:35:45;;;;;;;1.15;0.75;;;;;;;25.14;50.89;99425.66;2005246;80;20235;-75
2021/08/10 14:38:47;;;;;;;3.55;0.86;;;;;;;25.21;49.97;99426.97;2002156;81;20177;-75
2021/08/10 14:41:50;;;;;;;1.45;0.90;;;;;;;25.32;49.54;99425.44;2001807;81;20366;-74
2021/08/10 14:44:53;;;;;;;3.59;0.86;;;;;;;25.26;49.16;99418.69;2001860;81;20215;-74
2021/08/10 14:47:55;;;;;;;2.34;0.85;;;;;;;25.23;50.52;99409.09;2006023;78;57413;-75
2021/08/10 14:50:58;;;;;;;2.78;1.01;;;;;;;25.16;49.28;99412.28;2007310;80;20274;-75
2021/08/10 14:54:01;;;;;;;3.47;1.08;;;;;;;25.06;50.25;99417.31;2006866;80;20195;-75
2021/08/10 14:57:04;;;;;;;1.84;0.89;;;;;;;25.01;49.82;99416.75;2006573;80;20185;-74
2021/08/10 15:00:07;;;;;;;2.33;0.99;;;;;;;25.05;51.00;99409.44;2005589;80;20246;-75
2021/08/10 15:03:09;;;;;;;2.08;0.90;;;;;;;24.98;51.35;99408.94;2000974;78;20206;-75
2021/08/10 15:06:13;;;;;;;2.03;0.93;;;;;;;25.06;51.01;99404.03;2001709;81;20615;-75
2021/08/10 15:09:18;;;;;;;3.29;1.02;;;;;;;25.35;48.33;99406.63;2001539;81;20214;-75
2021/08/10 15:12:20;;;;;;;1.89;0.90;;;;;;;25.46;47.79;99396.97;2001900;81;21061;-76
2021/08/10 15:15:24;;;;;;;1.58;0.90;;;;;;;25.23;46.50;99400.28;2001481;80;22539;-76
2021/08/10 15:18:26;;;;;;;0.91;0.90;;;;;;;25.14;46.83;99404.41;2007817;80;20771;-76
2021/08/10 15:21:29;;;;;;;2.20;0.96;;;;;;;25.09;48.17;99403.81;2006301;80;20226;-75
2021/08/10 15:24:32;;;;;;;2.03;0.84;;;;;;;24.97;46.83;99410.75;2006989;80;20207;-75
2021/08/10 15:27:37;;;;;;;2.95;1.13;;;;;;;24.83;48.27;99393.97;2006716;80;20181;-75
2021/08/10 15:30:40;;;;;;;1.95;0.86;;;;;;;24.66;49.40;99403.00;2004249;78;21811;-74
2021/08/10 15:33:42;;;;;;;2.16;0.82;;;;;;;24.43;49.70;99387.63;2001476;81;20875;-75
2021/08/10 15:36:45;;;;;;;2.42;0.93;;;;;;;24.35;49.26;99390.75;2002028;81;20223;-76
2021/08/10 15:39:47;;;;;;;1.81;0.90;;;;;;;24.40;50.43;99394.81;2001694;81;20170;-75
2021/08/10 15:42:50;;;;;;;2.35;1.00;;;;;;;24.66;49.36;99389.72;2001557;81;20215;-75
2021/08/10 15:45:54;;;;;;;2.45;0.77;;;;;;;24.88;50.25;99389.22;2001824;78;20189;-75